BIENTÔT MET'MAP
version 2.0 !

Prévue avant fin octobre,
la nouvelle version sera
plus belle, plus complète
et hébergée sur un serveur
3 fois plus puissant...
et toujours gratuite !


Pas compatible ?
Essayez la version Mobile !

SE CONNECTER : | S'inscrire | Disclaimer | Découvrir Orbifly |
Code OACI :

TAF - LTAD Etimesgut Air Base - 25 May 2020 23:16 UTC - Data Source NOAA   


- Altitude de l'aérodrome : 2653 ft
- Code IATA : ANK
- Pas de NOTAMs connus.


LTAD - Etimesgut Air Base

Dernier METAR connu : 2015/08/10 21:10 LTAD 102110Z 23014G25KT CAVOK 25/16 Q1013 BECMG VRB02KT RMK RWY29 22014KT
TAF TAF LTAD
Valide du 25 à 21h jusqu'au 26 à 06h UTC


251940Z 2521/2606 29008KT 9999 SCT040 BKN100
TEMPO 2603/2606 -SHRA BKN035 BKN090

Source NOAA


MET'MAP, la Météo Aéronautique d'un coup d'oeil ! - Copyright ORBIFLY Décembre 2007

Développement & Programmation : Alexandra Zaïnal
Co-Développement : Marc-Olivier Méhu
Soutien technique & logistique : Manuel Goepfert
Conception & Financement : Baudouin d'Aumeries